Time;durP1;ratioP1;P1;durP2;ratioP2;P2;SDS_P1;SDS_P2;PMS_P1;PMS_P2;Temp;Humidity;BMP_temperature;BMP_pressure;BME280_temperature;BME280_humidity;BME280_pressure;Samples;Min_cycle;Max_cycle;Signal;HPM_P1;HPM_P2
2022/07/11 00:02:01;;;;;;;2.78;1.90;;;15.90;99.90;;;;;;5063857;28;20041;-69
2022/07/11 00:04:29;;;;;;;3.47;1.98;;;15.90;99.90;;;;;;5051532;28;20049;-69
2022/07/11 00:06:55;;;;;;;3.50;2.10;;;15.90;99.90;;;;;;5048042;28;20093;-72
2022/07/11 00:09:21;;;;;;;4.30;2.00;;;15.90;99.90;;;;;;5065539;28;20080;-68
2022/07/11 00:11:48;;;;;;;4.05;2.00;;;15.90;99.90;;;;;;5060249;28;20084;-69
2022/07/11 00:14:14;;;;;;;3.97;2.13;;;15.80;99.90;;;;;;5057181;28;20430;-68
2022/07/11 00:16:40;;;;;;;4.03;2.50;;;15.90;99.90;;;;;;5037989;28;20077;-69
2022/07/11 00:19:05;;;;;;;4.05;2.50;;;15.80;99.90;;;;;;5058621;28;20040;-69
2022/07/11 00:21:33;;;;;;;3.05;2.05;;;15.80;99.90;;;;;;5048502;28;20098;-71
2022/07/11 00:23:59;;;;;;;4.75;2.17;;;15.80;99.90;;;;;;5069553;28;20593;-69
2022/07/11 00:26:25;;;;;;;2.92;1.90;;;15.80;99.90;;;;;;5046576;28;20045;-68
2022/07/11 00:28:51;;;;;;;2.25;1.58;;;15.80;99.90;;;;;;5040770;28;20082;-69
2022/07/11 00:31:16;;;;;;;3.95;1.95;;;15.70;99.90;;;;;;5064647;28;20052;-68
2022/07/11 00:33:42;;;;;;;3.58;2.03;;;15.80;99.90;;;;;;5063061;28;20033;-68
2022/07/11 00:36:08;;;;;;;5.32;2.00;;;15.70;99.90;;;;;;5059305;28;20483;-68
2022/07/11 00:38:34;;;;;;;4.65;2.40;;;15.70;99.90;;;;;;5056288;28;20071;-70
2022/07/11 00:41:00;;;;;;;5.57;2.92;;;15.80;99.90;;;;;;5064153;28;20411;-70
2022/07/11 00:43:31;;;;;;;5.20;2.60;;;15.80;99.90;;;;;;5061847;28;20037;-69
2022/07/11 00:45:57;;;;;;;5.03;2.38;;;15.70;99.90;;;;;;5040258;28;20075;-70
2022/07/11 00:48:22;;;;;;;7.35;2.63;;;15.70;99.90;;;;;;5049791;28;20041;-68
2022/07/11 00:50:48;;;;;;;4.93;2.83;;;15.70;99.90;;;;;;5056256;28;20040;-69
2022/07/11 00:53:14;;;;;;;5.05;2.75;;;15.70;99.90;;;;;;5045316;28;20137;-69
2022/07/11 00:55:40;;;;;;;4.30;3.20;;;15.70;99.90;;;;;;5043549;28;20052;-69
2022/07/11 00:58:06;;;;;;;5.43;2.90;;;15.70;99.90;;;;;;5057821;28;20481;-68
2022/07/11 01:00:33;;;;;;;5.85;3.20;;;15.70;99.90;;;;;;5059869;28;20075;-69
2022/07/11 01:02:58;;;;;;;6.70;3.05;;;15.70;99.90;;;;;;5042880;28;20492;-72
2022/07/11 01:05:24;;;;;;;6.30;3.17;;;15.70;99.90;;;;;;5024243;28;20037;-69
2022/07/11 01:07:50;;;;;;;6.95;2.70;;;15.60;99.90;;;;;;5052912;28;20131;-68
2022/07/11 01:10:16;;;;;;;5.57;2.85;;;15.60;99.90;;;;;;5051183;28;20048;-72
2022/07/11 01:12:41;;;;;;;5.45;2.97;;;15.60;99.90;;;;;;5046072;28;20075;-69
2022/07/11 01:15:07;;;;;;;6.65;3.08;;;15.50;99.90;;;;;;5058303;28;20087;-69
2022/07/11 01:17:33;;;;;;;8.90;2.90;;;15.50;99.90;;;;;;5074532;28;20055;-69
2022/07/11 01:20:00;;;;;;;6.90;3.03;;;15.50;99.90;;;;;;5052821;28;20053;-69
2022/07/11 01:22:28;;;;;;;7.32;3.17;;;15.50;99.90;;;;;;5062406;28;20041;-72
2022/07/11 01:24:54;;;;;;;9.82;3.40;;;15.40;99.90;;;;;;5048210;28;20094;-70
2022/07/11 01:27:22;;;;;;;7.10;3.35;;;15.40;99.90;;;;;;5051145;28;20098;-68
2022/07/11 01:29:48;;;;;;;6.90;3.30;;;15.40;99.90;;;;;;5039601;28;20082;-69
2022/07/11 01:32:16;;;;;;;8.80;3.65;;;15.40;99.90;;;;;;5042113;28;20373;-69
2022/07/11 01:34:42;;;;;;;7.13;4.00;;;15.40;99.90;;;;;;5038260;28;20041;-69
2022/07/11 01:37:08;;;;;;;5.53;4.05;;;15.40;99.90;;;;;;5064690;28;20098;-69
2022/07/11 01:39:33;;;;;;;11.00;4.20;;;15.40;99.90;;;;;;5057742;28;20036;-69
2022/07/11 01:41:59;;;;;;;7.78;3.90;;;15.40;99.90;;;;;;5038049;28;20048;-70
2022/07/11 01:44:25;;;;;;;6.80;3.60;;;15.40;99.90;;;;;;5021653;28;20040;-72
2022/07/11 01:46:51;;;;;;;4.93;3.50;;;15.40;99.90;;;;;;5054527;28;20044;-69
2022/07/11 01:49:17;;;;;;;8.10;3.58;;;15.40;99.90;;;;;;5056728;28;20074;-70
2022/07/11 01:51:43;;;;;;;5.50;3.40;;;15.30;99.90;;;;;;5055105;28;20381;-71
2022/07/11 01:54:09;;;;;;;7.07;3.50;;;15.30;99.90;;;;;;5052876;28;20071;-70
2022/07/11 01:56:35;;;;;;;5.53;3.30;;;15.30;99.90;;;;;;5061121;28;20040;-69
2022/07/11 01:59:01;;;;;;;6.78;3.45;;;15.30;99.90;;;;;;5048029;28;20037;-69
2022/07/11 02:01:27;;;;;;;6.53;3.58;;;15.30;99.90;;;;;;5058464;28;20136;-68
2022/07/11 02:03:54;;;;;;;9.98;3.92;;;15.30;99.90;;;;;;5056443;28;20164;-68
2022/07/11 02:06:20;;;;;;;6.43;3.42;;;15.30;99.90;;;;;;5051919;28;20064;-69
2022/07/11 02:08:46;;;;;;;8.38;3.60;;;15.30;99.90;;;;;;5043839;28;20048;-69
2022/07/11 02:14:41;;;;;;;6.78;3.58;;;15.30;99.90;;;;;;5023747;23;20184;-69
2022/07/11 02:17:07;;;;;;;6.32;3.85;;;15.30;99.90;;;;;;4983323;23;20058;-69
2022/07/11 02:19:32;;;;;;;6.65;3.90;;;15.40;99.90;;;;;;4978007;28;20057;-69
2022/07/11 02:22:05;;;;;;;9.25;4.22;;;15.30;99.90;;;;;;5010982;28;20188;-68
2022/07/11 02:24:31;;;;;;;9.15;3.97;;;15.40;99.90;;;;;;4969543;28;20125;-69
2022/07/11 02:26:57;;;;;;;11.95;4.57;;;15.40;99.90;;;;;;4991982;28;20168;-69
2022/07/11 02:29:22;;;;;;;8.50;4.53;;;15.30;99.90;;;;;;4999327;28;20073;-69
2022/07/11 02:31:48;;;;;;;8.23;5.00;;;15.40;99.90;;;;;;4948446;28;20054;-73
2022/07/11 02:34:14;;;;;;;9.10;5.10;;;15.40;99.90;;;;;;4991713;28;20061;-69
2022/07/11 02:36:39;;;;;;;9.88;4.93;;;15.40;99.90;;;;;;4997675;28;20054;-70
2022/07/11 02:39:06;;;;;;;10.98;5.78;;;15.40;99.90;;;;;;4963569;28;20636;-69
2022/07/11 02:41:31;;;;;;;10.25;5.50;;;15.40;99.90;;;;;;4988682;28;20057;-70
2022/07/11 02:43:57;;;;;;;8.75;5.00;;;15.40;99.90;;;;;;4978298;28;20045;-70
2022/07/11 02:46:23;;;;;;;10.82;5.72;;;15.40;99.90;;;;;;4996851;28;20050;-69
2022/07/11 02:48:48;;;;;;;9.63;5.32;;;15.40;99.90;;;;;;4995980;28;20046;-69
2022/07/11 02:51:14;;;;;;;9.90;5.93;;;15.40;99.90;;;;;;4980645;28;20058;-73
2022/07/11 02:53:40;;;;;;;12.27;5.03;;;15.40;99.90;;;;;;4996384;28;20096;-68
2022/07/11 02:56:06;;;;;;;12.05;5.75;;;15.30;99.90;;;;;;4981417;28;20458;-70
2022/07/11 02:58:31;;;;;;;8.65;5.40;;;15.30;99.90;;;;;;4961705;28;20121;-69
2022/07/11 03:00:57;;;;;;;10.63;5.28;;;15.30;99.90;;;;;;4988309;28;20130;-69
2022/07/11 03:03:23;;;;;;;11.32;5.30;;;15.30;99.90;;;;;;4980068;28;20057;-69
2022/07/11 03:05:48;;;;;;;6.90;5.03;;;15.30;99.90;;;;;;5013882;28;20046;-68
2022/07/11 03:08:14;;;;;;;8.43;4.95;;;15.30;99.90;;;;;;4963145;28;20129;-69
2022/07/11 03:10:40;;;;;;;7.97;4.70;;;15.30;99.90;;;;;;4965294;28;20054;-71
2022/07/11 03:13:05;;;;;;;7.18;4.53;;;15.40;99.90;;;;;;4980504;28;20486;-74
2022/07/11 03:15:31;;;;;;;8.88;5.03;;;15.40;99.90;;;;;;4992601;28;20476;-69
2022/07/11 03:17:57;;;;;;;7.57;4.45;;;15.40;99.90;;;;;;4963659;28;20056;-70
2022/07/11 03:20:22;;;;;;;7.18;4.57;;;15.40;99.90;;;;;;4969323;28;20050;-69
2022/07/11 03:22:48;;;;;;;7.88;4.25;;;15.40;99.90;;;;;;4991794;28;20046;-70
2022/07/11 03:25:14;;;;;;;9.25;4.45;;;15.40;99.90;;;;;;4993557;28;20525;-68
2022/07/11 03:27:39;;;;;;;9.07;4.60;;;15.40;99.90;;;;;;4976529;28;20046;-69
2022/07/11 03:30:06;;;;;;;6.05;3.58;;;15.40;99.90;;;;;;4976779;28;20050;-69
2022/07/11 03:32:31;;;;;;;8.30;3.95;;;15.40;99.90;;;;;;4988775;28;20506;-69
2022/07/11 03:37:41;;;;;;;8.48;4.40;;;15.50;99.90;;;;;;4998616;28;20089;-70
2022/07/11 03:40:08;;;;;;;7.53;4.10;;;15.50;99.90;;;;;;4977160;28;20082;-69
2022/07/11 03:42:34;;;;;;;5.38;4.18;;;15.50;99.90;;;;;;4960206;28;20046;-68
2022/07/11 03:45:01;;;;;;;8.73;4.20;;;15.50;99.90;;;;;;4961105;28;20408;-69
2022/07/11 03:47:26;;;;;;;9.93;3.80;;;15.50;99.90;;;;;;4958765;28;20053;-69
2022/07/11 03:49:52;;;;;;;7.60;4.22;;;15.50;99.90;;;;;;4976270;28;20046;-69
2022/07/11 03:52:18;;;;;;;8.40;3.97;;;15.50;99.90;;;;;;4973899;28;20053;-71
2022/07/11 03:54:44;;;;;;;5.95;4.35;;;15.60;99.90;;;;;;4961466;28;20069;-69
2022/07/11 03:57:09;;;;;;;5.57;4.07;;;15.50;99.90;;;;;;4976578;28;20082;-71
2022/07/11 03:59:35;;;;;;;8.43;4.03;;;15.50;99.90;;;;;;4960158;28;20142;-74
2022/07/11 04:02:01;;;;;;;6.30;3.85;;;15.50;99.90;;;;;;5008988;28;20042;-69
2022/07/11 04:04:27;;;;;;;6.20;3.40;;;15.60;99.90;;;;;;4965535;28;20046;-71
2022/07/11 04:06:52;;;;;;;6.30;3.90;;;15.50;99.90;;;;;;4976864;28;20049;-71
2022/07/11 04:09:18;;;;;;;6.00;3.65;;;15.50;99.90;;;;;;4976128;28;20049;-73
2022/07/11 04:11:44;;;;;;;7.65;4.03;;;15.60;99.90;;;;;;4976765;28;20038;-69
2022/07/11 04:14:09;;;;;;;6.30;3.95;;;15.60;99.90;;;;;;4976286;28;20081;-71
2022/07/11 04:16:35;;;;;;;5.30;3.42;;;15.60;99.90;;;;;;5018368;28;20057;-69
2022/07/11 04:19:07;;;;;;;7.07;3.40;;;15.60;99.90;;;;;;5029934;28;20128;-69
2022/07/11 04:21:32;;;;;;;6.32;3.35;;;15.60;99.90;;;;;;4979282;28;20041;-69
2022/07/11 04:23:58;;;;;;;7.05;3.83;;;15.70;99.90;;;;;;5003393;28;20050;-71
2022/07/11 04:26:24;;;;;;;6.10;4.00;;;15.60;99.90;;;;;;5008686;28;20045;-71
2022/07/11 04:28:50;;;;;;;5.55;3.70;;;15.70;99.90;;;;;;4973353;28;20050;-69
2022/07/11 04:31:15;;;;;;;7.20;3.70;;;15.60;99.90;;;;;;4995101;28;20069;-74
2022/07/11 04:33:41;;;;;;;4.53;2.58;;;15.70;99.90;;;;;;4984966;28;20073;-69
2022/07/11 04:36:14;;;;;;;6.35;2.88;;;15.60;99.90;;;;;;4979386;28;20052;-69
2022/07/11 04:38:43;;;;;;;4.95;2.65;;;15.70;99.90;;;;;;4995416;28;20045;-69
2022/07/11 04:41:09;;;;;;;3.70;2.30;;;15.70;99.90;;;;;;5014285;28;20180;-69
2022/07/11 04:43:36;;;;;;;5.07;2.67;;;15.70;99.90;;;;;;5001590;28;20489;-69
2022/07/11 04:46:04;;;;;;;7.05;2.90;;;15.80;99.90;;;;;;5007013;28;20695;-69
2022/07/11 04:48:31;;;;;;;3.40;1.83;;;15.80;99.90;;;;;;4999128;28;20037;-70
2022/07/11 04:50:57;;;;;;;3.10;1.60;;;15.80;99.90;;;;;;5011729;28;20053;-69
2022/07/11 04:53:23;;;;;;;3.92;1.67;;;15.70;99.90;;;;;;4998736;28;20137;-69
2022/07/11 04:55:49;;;;;;;1.83;1.25;;;15.80;99.90;;;;;;4986964;28;20042;-70
2022/07/11 04:58:15;;;;;;;3.85;1.33;;;15.80;99.90;;;;;;4978323;28;20277;-69
2022/07/11 05:00:40;;;;;;;3.20;1.38;;;15.80;99.90;;;;;;5014025;28;20052;-69
2022/07/11 05:03:06;;;;;;;2.67;1.30;;;15.80;99.90;;;;;;5014317;28;20049;-69
2022/07/11 05:05:32;;;;;;;3.40;1.40;;;15.90;99.90;;;;;;5006767;28;20136;-69
2022/07/11 05:07:58;;;;;;;2.55;1.30;;;15.90;99.90;;;;;;5015049;28;20048;-69
2022/07/11 05:10:24;;;;;;;3.70;1.05;;;16.00;99.90;;;;;;5000182;28;20037;-69
2022/07/11 05:12:49;;;;;;;3.47;1.13;;;16.00;99.90;;;;;;4995365;28;20491;-71
2022/07/11 05:15:15;;;;;;;3.60;1.05;;;16.10;99.90;;;;;;4995084;28;20133;-74
2022/07/11 05:17:41;;;;;;;1.48;1.00;;;16.10;99.90;;;;;;4978456;28;20466;-70
2022/07/11 05:20:07;;;;;;;5.43;1.10;;;16.10;99.90;;;;;;4975934;28;20042;-70
2022/07/11 05:22:33;;;;;;;2.85;1.00;;;16.20;99.90;;;;;;5020434;28;20041;-69
2022/07/11 05:24:59;;;;;;;3.85;1.00;;;16.20;99.90;;;;;;4975533;28;20099;-70
2022/07/11 05:27:24;;;;;;;2.15;0.60;;;16.20;99.90;;;;;;5004219;28;20038;-69
2022/07/11 05:29:50;;;;;;;2.95;0.85;;;16.20;99.90;;;;;;4999874;28;20129;-69
2022/07/11 05:32:16;;;;;;;2.33;1.00;;;16.20;99.90;;;;;;5010970;28;20126;-72
2022/07/11 05:34:42;;;;;;;2.20;0.75;;;16.30;99.90;;;;;;4993059;28;20042;-70
2022/07/11 05:37:07;;;;;;;3.30;0.98;;;16.30;99.90;;;;;;4986208;28;20080;-70
2022/07/11 05:39:33;;;;;;;2.58;0.90;;;16.40;99.90;;;;;;5010088;28;20513;-72
2022/07/11 05:41:59;;;;;;;1.90;0.90;;;16.50;99.90;;;;;;4993239;28;20056;-71
2022/07/11 05:44:25;;;;;;;1.60;0.80;;;16.70;99.90;;;;;;4994702;28;20081;-69
2022/07/11 05:46:50;;;;;;;2.35;0.90;;;16.80;99.90;;;;;;5004487;28;20041;-69
2022/07/11 05:49:16;;;;;;;5.93;0.88;;;16.90;99.90;;;;;;4976711;28;20042;-70
2022/07/11 05:51:42;;;;;;;4.22;0.85;;;16.90;99.90;;;;;;5020943;28;20445;-69
2022/07/11 05:54:07;;;;;;;1.10;0.75;;;17.00;99.90;;;;;;4979400;28;20065;-69
2022/07/11 05:56:33;;;;;;;1.80;0.57;;;17.10;99.90;;;;;;4978393;28;20475;-69
2022/07/11 05:58:59;;;;;;;1.90;0.55;;;17.10;99.90;;;;;;4976525;28;20129;-71
2022/07/11 06:01:26;;;;;;;0.73;0.50;;;17.20;99.90;;;;;;4991910;28;20134;-70
2022/07/11 06:03:52;;;;;;;1.33;0.70;;;17.10;99.90;;;;;;4975235;28;20046;-68
2022/07/11 06:06:18;;;;;;;3.25;0.75;;;17.20;99.90;;;;;;4985618;28;20084;-70
2022/07/11 06:08:44;;;;;;;1.45;0.60;;;17.30;99.90;;;;;;4994637;28;20483;-71
2022/07/11 06:11:12;;;;;;;2.80;0.68;;;17.40;99.90;;;;;;4995798;28;20038;-69
2022/07/11 06:13:42;;;;;;;1.90;0.60;;;17.40;99.90;;;;;;4982928;28;20085;-69
2022/07/11 06:16:08;;;;;;;3.05;0.68;;;17.50;99.90;;;;;;4981622;28;20053;-72
2022/07/11 06:18:35;;;;;;;2.17;0.60;;;17.50;99.90;;;;;;5014214;28;20046;-69
2022/07/11 06:21:01;;;;;;;1.33;0.40;;;17.60;99.90;;;;;;4981350;28;20042;-70
2022/07/11 06:23:27;;;;;;;2.35;0.60;;;17.50;99.90;;;;;;4981744;28;20041;-70
2022/07/11 06:25:54;;;;;;;2.72;0.60;;;17.50;99.90;;;;;;5003686;28;20046;-72
2022/07/11 06:28:19;;;;;;;0.77;0.55;;;17.60;99.90;;;;;;4981654;28;20054;-71
2022/07/11 06:30:45;;;;;;;2.42;0.50;;;17.70;99.90;;;;;;4993335;28;20042;-72
2022/07/11 06:33:11;;;;;;;1.23;0.40;;;17.80;99.90;;;;;;4995737;28;20045;-69
2022/07/11 06:35:36;;;;;;;1.98;0.60;;;17.90;99.90;;;;;;4997905;28;20096;-69
2022/07/11 06:38:02;;;;;;;2.15;0.40;;;18.20;99.90;;;;;;4994637;28;20051;-69
2022/07/11 06:40:28;;;;;;;1.38;0.47;;;18.50;99.90;;;;;;5000894;28;20431;-69
2022/07/11 06:42:54;;;;;;;1.02;0.30;;;18.60;99.90;;;;;;4981339;28;20053;-69
2022/07/11 06:45:20;;;;;;;0.75;0.30;;;18.40;99.90;;;;;;4997418;28;20437;-70
2022/07/11 06:47:45;;;;;;;0.30;0.30;;;18.40;99.90;;;;;;4998555;28;20099;-72
2022/07/11 06:50:11;;;;;;;0.65;0.25;;;18.20;99.90;;;;;;5001048;28;20045;-69
2022/07/11 06:52:37;;;;;;;0.80;0.30;;;18.20;99.90;;;;;;4997210;28;20080;-73
2022/07/11 06:55:03;;;;;;;0.93;0.20;;;18.10;99.90;;;;;;5004325;28;20049;-70
2022/07/11 06:57:29;;;;;;;0.40;0.22;;;18.00;99.90;;;;;;4984680;28;20124;-69
2022/07/11 06:59:58;;;;;;;0.90;0.20;;;18.10;99.90;;;;;;4995338;28;20145;-69
2022/07/11 07:02:27;;;;;;;0.40;0.30;;;18.10;99.90;;;;;;5001083;28;20120;-69
2022/07/11 07:04:53;;;;;;;1.15;0.30;;;18.10;99.90;;;;;;4985047;28;20487;-70
2022/07/11 07:07:19;;;;;;;0.93;0.22;;;18.10;99.90;;;;;;4991550;28;20051;-70
2022/07/11 07:09:45;;;;;;;1.00;0.20;;;18.20;99.90;;;;;;5006781;28;20046;-70
2022/07/11 07:12:10;;;;;;;0.30;0.30;;;18.30;99.90;;;;;;5030249;28;20103;-71
2022/07/11 07:14:36;;;;;;;0.55;0.30;;;18.30;99.90;;;;;;5008960;28;20049;-70
2022/07/11 07:17:02;;;;;;;0.20;0.20;;;18.30;99.90;;;;;;4973553;28;20050;-73
2022/07/11 07:19:28;;;;;;;0.80;0.20;;;18.30;99.90;;;;;;4970994;28;20042;-70
2022/07/11 07:21:53;;;;;;;0.57;0.22;;;18.40;99.90;;;;;;4973034;28;20109;-69
2022/07/11 07:24:19;;;;;;;0.55;0.22;;;18.50;99.90;;;;;;4959612;28;20042;-70
2022/07/11 07:26:45;;;;;;;0.25;0.20;;;18.70;99.90;;;;;;4961294;28;20059;-69
2022/07/11 07:29:10;;;;;;;0.60;0.30;;;18.60;99.90;;;;;;4971877;28;20479;-70
2022/07/11 07:31:36;;;;;;;0.47;0.30;;;18.50;99.90;;;;;;4969677;28;20403;-73
2022/07/11 07:34:02;;;;;;;1.27;0.30;;;18.50;99.90;;;;;;4959168;28;20483;-69
2022/07/11 07:36:28;;;;;;;0.38;0.38;;;18.40;99.90;;;;;;4956662;28;20057;-70
2022/07/11 07:38:54;;;;;;;0.30;0.30;;;18.30;99.90;;;;;;4957323;28;20046;-69
2022/07/11 07:41:20;;;;;;;1.52;0.35;;;18.20;99.90;;;;;;4956140;28;20044;-70
2022/07/11 07:43:48;;;;;;;1.48;0.40;;;18.10;99.90;;;;;;4970504;28;20046;-73
2022/07/11 07:46:14;;;;;;;1.50;0.40;;;18.10;99.90;;;;;;4972783;28;20089;-69
2022/07/11 07:48:40;;;;;;;2.08;0.40;;;17.90;99.90;;;;;;4971655;28;20105;-69
2022/07/11 07:51:07;;;;;;;0.93;0.30;;;17.90;99.90;;;;;;4970451;28;20046;-72
2022/07/11 07:53:32;;;;;;;0.73;0.40;;;17.90;99.90;;;;;;4987335;28;20399;-69
2022/07/11 07:55:58;;;;;;;2.22;0.60;;;17.90;99.90;;;;;;4996608;28;20052;-70
2022/07/11 07:58:24;;;;;;;1.83;0.50;;;17.90;99.90;;;;;;4956247;28;20050;-70
2022/07/11 08:03:34;;;;;;;1.30;0.30;;;17.90;99.90;;;;;;4960232;28;20475;-69
2022/07/11 08:05:59;;;;;;;1.92;0.50;;;17.90;99.90;;;;;;4965886;28;20054;-69
2022/07/11 08:08:25;;;;;;;1.45;0.52;;;18.00;99.90;;;;;;4967388;28;20449;-70
2022/07/11 08:10:51;;;;;;;2.47;0.50;;;18.10;99.90;;;;;;4973086;28;20798;-71
2022/07/11 08:13:18;;;;;;;1.67;0.60;;;18.10;99.90;;;;;;4941676;28;20053;-69
2022/07/11 08:15:44;;;;;;;1.10;0.38;;;18.20;99.90;;;;;;4960181;28;20050;-71
2022/07/11 08:18:10;;;;;;;1.08;0.32;;;18.30;99.90;;;;;;4957564;28;20085;-72
2022/07/11 08:20:35;;;;;;;0.43;0.30;;;18.40;99.90;;;;;;4992138;28;20085;-70
2022/07/11 08:23:03;;;;;;;0.47;0.30;;;18.60;99.90;;;;;;4988862;28;20101;-70
2022/07/11 08:25:32;;;;;;;1.27;0.40;;;18.70;99.90;;;;;;4982398;28;20046;-69
2022/07/11 08:27:58;;;;;;;0.68;0.35;;;18.80;99.90;;;;;;4965065;28;20122;-70
2022/07/11 08:30:25;;;;;;;1.05;0.57;;;18.90;99.90;;;;;;4975870;28;20495;-71
2022/07/11 08:32:51;;;;;;;1.10;0.40;;;19.00;99.90;;;;;;4991341;28;20050;-71
2022/07/11 08:35:17;;;;;;;0.43;0.40;;;19.10;99.90;;;;;;4942277;28;20092;-71
2022/07/11 08:37:43;;;;;;;1.10;0.50;;;19.10;99.90;;;;;;4977233;28;20444;-71
2022/07/11 08:40:09;;;;;;;0.50;0.40;;;19.10;99.90;;;;;;4975881;28;20054;-70
2022/07/11 08:42:41;;;;;;;1.00;0.40;;;19.20;99.90;;;;;;4973926;28;20054;-72
2022/07/11 08:45:10;;;;;;;1.20;0.57;;;19.10;99.90;;;;;;4985499;28;20045;-70
2022/07/11 08:47:36;;;;;;;1.40;0.40;;;19.30;99.90;;;;;;4976491;28;20050;-70
2022/07/11 08:50:04;;;;;;;1.20;0.40;;;19.20;99.90;;;;;;4951616;28;20046;-71
2022/07/11 08:52:31;;;;;;;1.58;0.38;;;19.10;99.90;;;;;;4969696;28;20060;-69
2022/07/11 08:54:57;;;;;;;1.35;0.30;;;19.10;99.90;;;;;;4953852;28;20048;-70
2022/07/11 08:57:22;;;;;;;0.90;0.45;;;19.20;99.90;;;;;;4984372;28;20169;-69
2022/07/11 08:59:52;;;;;;;0.77;0.40;;;19.30;99.90;;;;;;4971133;28;20042;-69
2022/07/11 09:02:19;;;;;;;0.47;0.30;;;19.50;99.90;;;;;;4969129;28;20050;-70
2022/07/11 09:04:46;;;;;;;0.93;0.30;;;19.70;99.90;;;;;;4967114;28;20045;-70
2022/07/11 09:07:12;;;;;;;0.50;0.30;;;19.90;99.90;;;;;;4940655;28;20570;-69
2022/07/11 09:09:37;;;;;;;0.63;0.30;;;19.90;99.90;;;;;;4969557;28;20035;-69
2022/07/11 09:12:14;;;;;;;1.23;0.30;;;19.80;99.90;;;;;;4961074;28;20146;-71
2022/07/11 09:14:46;;;;;;;0.98;0.30;;;19.70;99.90;;;;;;4992391;28;20053;-70
2022/07/11 09:17:12;;;;;;;1.83;0.30;;;19.40;99.90;;;;;;4992169;28;20053;-70
2022/07/11 09:19:39;;;;;;;1.10;0.30;;;19.40;99.90;;;;;;4997532;28;20104;-69
2022/07/11 09:25:25;;;;;;;0.45;0.20;;;19.30;99.90;;;;;;4990634;28;20507;-69
2022/07/11 09:27:56;;;;;;;1.60;0.30;;;19.40;99.90;;;;;;4985494;28;20050;-69
2022/07/11 09:30:27;;;;;;;1.05;0.30;;;19.50;99.90;;;;;;4987046;28;20037;-69
2022/07/11 09:33:05;;;;;;;1.05;0.30;;;19.70;99.90;;;;;;4986617;28;20483;-70
2022/07/11 09:35:36;;;;;;;0.40;0.22;;;19.70;99.90;;;;;;4968099;28;20048;-69
2022/07/11 09:38:03;;;;;;;;;;;19.70;99.90;;;;;;4973285;28;20050;-69
2022/07/11 09:40:29;;;;;;;0.60;0.30;;;19.70;99.90;;;;;;4989119;28;19921;-71
2022/07/11 09:42:57;;;;;;;1.10;0.28;;;19.80;99.90;;;;;;5011701;28;20068;-70
2022/07/11 09:45:26;;;;;;;0.95;0.30;;;19.70;99.90;;;;;;5010656;28;20122;-70
2022/07/11 09:47:54;;;;;;;0.20;0.20;;;19.70;99.90;;;;;;4980756;28;20128;-70
2022/07/11 09:50:25;;;;;;;0.80;0.30;;;19.80;99.90;;;;;;4991660;28;20099;-69
2022/07/11 09:53:10;;;;;;;0.65;0.43;;;19.80;99.90;;;;;;4993529;28;20376;-69
2022/07/11 09:55:44;;;;;;;1.17;0.30;;;19.80;99.90;;;;;;5000324;28;20388;-69
2022/07/11 09:58:13;;;;;;;0.90;0.30;;;19.70;99.90;;;;;;4988809;28;20054;-70
2022/07/11 10:00:40;;;;;;;0.30;0.30;;;19.60;99.90;;;;;;4988624;28;20081;-68
2022/07/11 10:03:07;;;;;;;0.45;0.35;;;19.60;99.90;;;;;;4984690;28;21442;-69
2022/07/11 10:05:34;;;;;;;0.40;0.40;;;19.40;99.90;;;;;;4988046;28;20157;-69
2022/07/11 10:08:00;;;;;;;2.50;0.60;;;19.30;99.90;;;;;;4996201;28;20049;-69
2022/07/11 10:10:28;;;;;;;0.90;0.50;;;19.30;99.90;;;;;;4979389;28;20045;-70
2022/07/11 10:12:55;;;;;;;1.75;0.40;;;19.30;99.90;;;;;;4988039;28;20422;-68
2022/07/11 10:15:33;;;;;;;1.95;0.40;;;19.40;99.90;;;;;;4992505;28;20486;-69
2022/07/11 10:18:02;;;;;;;0.40;0.40;;;19.50;99.90;;;;;;5009044;28;20526;-69
2022/07/11 10:20:52;;;;;;;0.85;0.50;;;19.70;99.90;;;;;;5012716;28;20482;-68
2022/07/11 10:23:24;;;;;;;0.50;0.40;;;19.80;99.90;;;;;;5020303;28;20054;-68
2022/07/11 10:26:04;;;;;;;0.88;0.40;;;20.00;99.90;;;;;;4993890;28;20053;-68
2022/07/11 10:28:39;;;;;;;0.98;0.40;;;20.10;99.90;;;;;;4991979;28;20041;-69
2022/07/11 10:31:19;;;;;;;1.23;0.38;;;20.10;99.90;;;;;;4988208;28;20043;-68
2022/07/11 10:34:10;;;;;;;0.68;0.35;;;20.10;99.90;;;;;;4998919;28;20431;-68
2022/07/11 10:36:43;;;;;;;0.63;0.30;;;20.00;99.90;;;;;;5000444;28;20510;-69
2022/07/11 10:39:26;;;;;;;0.40;0.30;;;19.90;99.90;;;;;;4993720;28;20060;-68
2022/07/11 10:41:53;;;;;;;0.30;0.30;;;19.90;99.90;;;;;;4978054;28;20550;-69
2022/07/11 10:44:20;;;;;;;0.70;0.50;;;19.90;99.90;;;;;;5006261;28;20057;-70
2022/07/11 10:46:46;;;;;;;0.98;0.30;;;19.90;99.90;;;;;;4972696;28;20057;-70
2022/07/11 10:49:18;;;;;;;0.55;0.30;;;20.00;99.90;;;;;;5020560;28;20041;-67
2022/07/11 10:51:49;;;;;;;0.40;0.40;;;20.20;99.90;;;;;;4998012;28;20052;-67
2022/07/11 10:54:44;;;;;;;0.77;0.50;;;20.30;99.90;;;;;;5003476;28;20639;-67
2022/07/11 10:57:22;;;;;;;1.27;0.40;;;20.40;99.90;;;;;;4993875;28;20045;-69
2022/07/11 11:00:10;;;;;;;1.05;0.38;;;20.50;99.90;;;;;;5013421;28;20096;-68
2022/07/11 11:03:01;;;;;;;0.77;0.40;;;20.50;99.90;;;;;;5006967;28;20089;-68
2022/07/11 11:05:52;;;;;;;1.10;0.50;;;20.50;99.90;;;;;;5017128;28;20041;-68
2022/07/11 11:08:36;;;;;;;2.53;0.40;;;20.40;99.90;;;;;;5017011;28;20080;-68
2022/07/11 11:11:20;;;;;;;0.40;0.40;;;20.60;99.90;;;;;;5011952;28;20057;-66
2022/07/11 11:13:46;;;;;;;2.22;0.50;;;20.60;99.90;;;;;;4996468;28;20048;-71
2022/07/11 11:16:20;;;;;;;1.40;0.43;;;20.50;99.90;;;;;;4992764;28;20133;-66
2022/07/11 11:18:46;;;;;;;1.35;0.43;;;20.50;99.90;;;;;;5008905;28;20052;-69
2022/07/11 11:21:12;;;;;;;2.45;0.65;;;20.50;99.90;;;;;;4998557;28;20050;-66
2022/07/11 11:23:40;;;;;;;0.73;0.43;;;20.40;99.90;;;;;;4981931;28;20053;-66
2022/07/11 11:26:12;;;;;;;0.40;0.40;;;20.40;99.90;;;;;;4990172;28;20061;-66
2022/07/11 11:28:54;;;;;;;1.10;0.45;;;20.40;99.90;;;;;;4980991;28;20046;-66
2022/07/11 11:31:20;;;;;;;0.47;0.43;;;20.30;99.90;;;;;;4987566;28;20503;-67
2022/07/11 11:33:47;;;;;;;1.08;0.40;;;20.20;99.90;;;;;;4973457;28;20049;-73
2022/07/11 11:36:16;;;;;;;0.57;0.57;;;20.20;99.90;;;;;;4988685;28;20137;-67
2022/07/11 11:38:43;;;;;;;0.50;0.50;;;20.20;99.90;;;;;;4998379;28;20113;-66
2022/07/11 11:41:09;;;;;;;0.40;0.40;;;20.10;99.90;;;;;;5006971;28;20124;-67
2022/07/11 11:43:37;;;;;;;0.90;0.43;;;20.00;99.90;;;;;;5000093;28;20134;-68
2022/07/11 11:46:03;;;;;;;1.02;0.50;;;19.90;99.90;;;;;;4988377;28;20407;-66
2022/07/11 11:48:30;;;;;;;0.98;0.52;;;19.80;99.90;;;;;;4988121;28;20061;-66
2022/07/11 11:51:10;;;;;;;1.17;0.70;;;20.10;99.90;;;;;;4993720;28;20051;-67
2022/07/11 11:53:54;;;;;;;1.38;1.00;;;20.20;99.90;;;;;;4977456;28;20550;-67
2022/07/11 11:56:28;;;;;;;2.05;1.00;;;20.40;99.90;;;;;;4963952;28;20156;-67
2022/07/11 11:59:13;;;;;;;1.45;0.90;;;20.40;99.90;;;;;;5005491;28;20441;-69
2022/07/11 12:01:44;;;;;;;1.42;1.13;;;20.40;99.90;;;;;;4985978;28;20104;-67
2022/07/11 12:04:15;;;;;;;3.72;1.77;;;20.30;99.90;;;;;;5004843;28;20049;-69
2022/07/11 12:06:50;;;;;;;3.60;2.38;;;20.30;99.90;;;;;;4996874;28;20046;-67
2022/07/11 12:09:45;;;;;;;1.00;0.60;;;20.50;99.90;;;;;;4994575;28;20041;-70
2022/07/11 12:14:51;;;;;;;0.60;0.55;;;21.10;99.90;;;;;;5008619;28;20472;-68
2022/07/11 12:17:26;;;;;;;0.95;0.52;;;21.40;99.90;;;;;;5002129;28;20057;-67
2022/07/11 12:19:52;;;;;;;0.50;0.50;;;21.60;99.90;;;;;;4974114;28;20050;-68
2022/07/11 12:22:18;;;;;;;1.00;0.50;;;21.70;99.90;;;;;;4995668;28;20449;-69
2022/07/11 12:24:51;;;;;;;2.45;0.40;;;21.80;99.90;;;;;;4965651;28;20054;-67
2022/07/11 12:27:22;;;;;;;0.40;0.40;;;21.80;99.90;;;;;;5011056;28;20056;-68
2022/07/11 12:29:51;;;;;;;;;;;21.70;99.90;;;;;;4994503;28;20439;-66
2022/07/11 12:32:20;;;;;;;0.47;0.47;;;21.50;99.90;;;;;;5008984;28;20329;-68
2022/07/11 12:34:49;;;;;;;1.08;0.50;;;21.60;99.90;;;;;;4993651;28;20054;-70
2022/07/11 12:37:19;;;;;;;1.10;0.50;;;21.60;99.90;;;;;;4990330;28;20084;-69
2022/07/11 12:39:56;;;;;;;0.77;0.47;;;21.60;99.90;;;;;;5000290;28;20053;-70
2022/07/11 12:42:29;;;;;;;1.15;0.40;;;21.60;99.90;;;;;;4999705;28;20076;-67
2022/07/11 12:45:09;;;;;;;0.77;0.52;;;21.60;99.90;;;;;;5001898;28;20093;-66
2022/07/11 12:47:38;;;;;;;1.90;0.50;;;21.60;99.90;;;;;;4998075;28;20434;-66
2022/07/11 12:50:18;;;;;;;0.55;0.40;;;21.70;99.90;;;;;;5000479;28;20056;-66
2022/07/11 12:52:47;;;;;;;0.45;0.43;;;21.70;99.90;;;;;;4978282;28;20041;-67
2022/07/11 12:55:22;;;;;;;0.55;0.50;;;21.80;99.90;;;;;;4968386;28;20415;-68
2022/07/11 12:58:18;;;;;;;0.55;0.50;;;21.80;99.90;;;;;;4981662;28;20053;-67
2022/07/11 13:01:04;;;;;;;0.85;0.47;;;21.90;99.90;;;;;;4998346;28;20034;-68
2022/07/11 13:03:33;;;;;;;1.20;0.50;;;21.90;99.90;;;;;;5005883;28;20132;-68
2022/07/11 13:05:59;;;;;;;2.35;0.80;;;21.90;99.90;;;;;;4980900;28;20121;-66
2022/07/11 13:08:48;;;;;;;0.40;0.40;;;21.90;99.90;;;;;;4976447;28;20049;-66